createdAt,value
2023-03-13T00:01:50.358Z,39.58
2023-03-13T00:04:17.240Z,27.33
2023-03-13T00:06:44.122Z,26.98
2023-03-13T00:09:12.059Z,24.38
2023-03-13T00:11:39.069Z,37.72
2023-03-13T00:14:06.651Z,30.25
2023-03-13T00:16:35.742Z,35.78
2023-03-13T00:19:03.228Z,26.20
2023-03-13T00:21:30.196Z,44.55
2023-03-13T00:23:58.325Z,24.67
2023-03-13T00:26:26.179Z,35.25
2023-03-13T00:28:53.240Z,30.33
2023-03-13T00:31:21.685Z,29.35
2023-03-13T00:33:51.961Z,26.20
2023-03-13T00:36:25.900Z,30.92
2023-03-13T00:38:53.455Z,33.08
2023-03-13T00:41:21.615Z,22.40
2023-03-13T00:43:49.061Z,31.83
2023-03-13T00:46:17.191Z,31.70
2023-03-13T00:48:44.207Z,28.05
2023-03-13T00:51:13.002Z,36.72
2023-03-13T00:53:39.883Z,28.50
2023-03-13T00:56:11.079Z,30.45
2023-03-13T00:58:39.794Z,35.72
2023-03-13T01:01:27.069Z,19.50
2023-03-13T01:03:58.574Z,25.70
2023-03-13T01:06:27.419Z,32.05
2023-03-13T01:08:57.552Z,26.50
2023-03-13T01:11:26.020Z,17.77
2023-03-13T01:13:56.922Z,30.80
2023-03-13T01:16:26.686Z,19.48
2023-03-13T01:18:54.653Z,27.30
2023-03-13T01:21:23.220Z,21.60
2023-03-13T01:23:51.077Z,24.10
2023-03-13T01:26:18.351Z,23.50
2023-03-13T01:28:45.166Z,19.33
2023-03-13T01:31:15.525Z,20.30
2023-03-13T01:33:42.501Z,13.75
2023-03-13T01:36:09.653Z,18.92
2023-03-13T01:38:37.189Z,23.35
2023-03-13T01:41:04.658Z,24.55
2023-03-13T01:43:32.621Z,16.20
2023-03-13T01:46:02.231Z,15.07
2023-03-13T01:48:42.642Z,16.45
2023-03-13T01:51:12.774Z,19.58
2023-03-13T01:53:42.198Z,15.68
2023-03-13T01:56:11.828Z,15.23
2023-03-13T01:58:38.942Z,19.88
2023-03-13T02:01:06.952Z,19.67
2023-03-13T02:03:35.551Z,19.25
2023-03-13T02:06:02.893Z,24.00
2023-03-13T02:08:32.976Z,25.67
2023-03-13T02:11:06.229Z,17.92
2023-03-13T02:13:32.937Z,11.27
2023-03-13T02:15:59.991Z,24.95
2023-03-13T02:18:26.920Z,24.67
2023-03-13T02:20:56.288Z,22.85
2023-03-13T02:23:27.916Z,26.73
2023-03-13T02:25:55.100Z,25.98
2023-03-13T02:28:34.922Z,29.77
2023-03-13T02:31:05.421Z,24.77
2023-03-13T02:33:42.492Z,32.17
2023-03-13T02:36:12.541Z,21.65
2023-03-13T02:38:43.437Z,23.58
2023-03-13T02:41:11.622Z,22.77
2023-03-13T02:43:39.540Z,32.63
2023-03-13T02:46:06.631Z,29.67
2023-03-13T02:48:37.460Z,25.80
2023-03-13T02:51:06.053Z,28.40
2023-03-13T02:53:33.733Z,26.60
2023-03-13T02:56:00.830Z,27.33
2023-03-13T02:58:30.259Z,22.77
2023-03-13T03:01:07.684Z,28.35
2023-03-13T03:03:37.716Z,21.48
2023-03-13T03:06:05.283Z,21.05
2023-03-13T03:08:34.380Z,27.73
2023-03-13T03:11:01.856Z,25.35
2023-03-13T03:13:28.749Z,18.52
2023-03-13T03:15:55.920Z,24.33
2023-03-13T03:18:22.692Z,15.50
2023-03-13T03:20:49.609Z,18.98
2023-03-13T03:23:18.160Z,12.88
2023-03-13T03:25:44.943Z,18.27
2023-03-13T03:28:11.848Z,10.63
2023-03-13T03:30:41.012Z,18.73
2023-03-13T03:33:07.799Z,14.73
2023-03-13T03:35:38.580Z,15.25
2023-03-13T03:38:06.416Z,13.00
2023-03-13T03:40:34.666Z,16.45
2023-03-13T03:43:01.903Z,20.20
2023-03-13T03:45:29.047Z,15.05
2023-03-13T03:47:59.665Z,15.18
2023-03-13T03:50:27.375Z,14.50
2023-03-13T03:52:59.412Z,14.30
2023-03-13T03:55:26.631Z,15.35
2023-03-13T03:57:53.439Z,15.95
2023-03-13T04:00:38.939Z,17.30
2023-03-13T04:03:08.637Z,14.40
2023-03-13T04:05:35.830Z,15.98
2023-03-13T04:08:02.908Z,15.13
2023-03-13T04:10:31.064Z,14.05
2023-03-13T04:12:58.061Z,14.00
2023-03-13T04:15:25.187Z,13.18
2023-03-13T04:17:52.244Z,9.95
2023-03-13T04:20:21.246Z,19.25
2023-03-13T04:22:48.135Z,12.52
2023-03-13T04:25:16.346Z,9.85
2023-03-13T04:27:43.186Z,18.70
2023-03-13T04:30:10.905Z,14.75
2023-03-13T04:32:43.612Z,13.75
2023-03-13T04:35:39.768Z,8.18
2023-03-13T04:38:31.648Z,16.17
2023-03-13T04:41:08.248Z,14.35
2023-03-13T04:43:53.525Z,10.53
2023-03-13T04:46:40.917Z,15.00
2023-03-13T04:49:36.289Z,14.45
2023-03-13T04:52:29.534Z,13.43
2023-03-13T04:55:17.837Z,10.98
2023-03-13T04:58:20.477Z,10.98
2023-03-13T05:01:07.519Z,15.02
2023-03-13T05:03:53.274Z,8.60
2023-03-13T05:06:46.280Z,12.60
2023-03-13T05:09:36.418Z,15.18
2023-03-13T05:12:28.933Z,10.38
2023-03-13T05:15:18.533Z,8.65
2023-03-13T05:18:04.104Z,12.10
2023-03-13T05:20:56.681Z,9.32
2023-03-13T05:23:38.734Z,10.30
2023-03-13T05:26:28.662Z,10.35
2023-03-13T05:29:15.550Z,11.98
2023-03-13T05:32:02.664Z,11.75
2023-03-13T05:34:43.234Z,9.13
2023-03-13T05:37:28.917Z,16.33
2023-03-13T05:40:18.836Z,7.78
2023-03-13T05:43:00.740Z,10.00
2023-03-13T05:45:41.876Z,11.40
2023-03-13T05:48:23.165Z,11.57
2023-03-13T05:51:08.437Z,10.43
2023-03-13T05:54:07.945Z,8.98
2023-03-13T05:57:04.528Z,12.70
2023-03-13T05:59:47.526Z,7.60
2023-03-13T06:02:26.348Z,13.10
2023-03-13T06:04:53.563Z,8.45
2023-03-13T06:07:20.540Z,10.50
2023-03-13T06:09:48.320Z,10.10
2023-03-13T06:12:15.231Z,12.48
2023-03-13T06:14:41.997Z,14.30
2023-03-13T06:17:21.966Z,7.63
2023-03-13T06:19:48.675Z,9.32
2023-03-13T06:22:16.593Z,10.90
2023-03-13T06:24:45.102Z,15.00
2023-03-13T06:27:11.931Z,9.65
2023-03-13T06:29:38.852Z,8.98
2023-03-13T06:32:07.535Z,6.30
2023-03-13T06:34:34.483Z,7.70
2023-03-13T06:37:01.360Z,13.13
2023-03-13T06:39:28.201Z,8.48
2023-03-13T06:41:54.968Z,12.38
2023-03-13T06:44:21.736Z,9.95
2023-03-13T06:46:48.651Z,11.93
2023-03-13T06:49:15.431Z,14.65
2023-03-13T06:51:42.234Z,9.10
2023-03-13T06:54:09.414Z,16.08
2023-03-13T06:56:36.280Z,13.77
2023-03-13T06:59:03.455Z,14.45
2023-03-13T07:01:30.835Z,10.90
2023-03-13T07:03:57.747Z,15.82
2023-03-13T07:06:24.761Z,13.90
2023-03-13T07:08:51.642Z,13.30
2023-03-13T07:11:19.037Z,7.70
2023-03-13T07:13:46.037Z,7.75
2023-03-13T07:16:13.626Z,7.72
2023-03-13T07:18:44.872Z,13.30
2023-03-13T07:21:12.005Z,13.10
2023-03-13T07:23:39.575Z,13.55
2023-03-13T07:26:07.664Z,13.63
2023-03-13T07:28:37.546Z,13.25
2023-03-13T07:31:10.932Z,12.50
2023-03-13T07:33:37.931Z,9.27
2023-03-13T07:36:05.220Z,12.95
2023-03-13T07:38:32.152Z,16.40
2023-03-13T07:40:59.529Z,14.30
2023-03-13T07:43:26.469Z,11.60
2023-03-13T07:45:54.547Z,6.82
2023-03-13T07:48:22.098Z,11.63
2023-03-13T07:50:49.501Z,12.45
2023-03-13T07:53:21.222Z,6.60
2023-03-13T07:56:07.966Z,12.48
2023-03-13T07:58:36.021Z,10.35
2023-03-13T08:01:31.120Z,8.95
2023-03-13T08:04:01.135Z,13.35
2023-03-13T08:06:32.602Z,7.15
2023-03-13T08:09:00.298Z,10.98
2023-03-13T08:11:28.717Z,6.68
2023-03-13T08:13:56.565Z,10.38
2023-03-13T08:16:24.656Z,12.05
2023-03-13T08:18:55.714Z,8.85
2023-03-13T08:21:26.751Z,10.18
2023-03-13T08:23:54.562Z,10.70
2023-03-13T08:26:22.374Z,11.25
2023-03-13T08:28:52.088Z,9.45
2023-03-13T08:31:20.370Z,22.60
2023-03-13T08:33:48.022Z,8.95
2023-03-13T08:36:18.037Z,9.13
2023-03-13T08:38:46.387Z,9.02
2023-03-13T08:41:17.996Z,8.18
2023-03-13T08:43:45.245Z,9.65
2023-03-13T08:46:12.416Z,8.52
2023-03-13T08:48:39.595Z,5.88
2023-03-13T08:51:08.151Z,4.28
2023-03-13T08:53:38.450Z,4.88
2023-03-13T08:56:06.083Z,9.02
2023-03-13T08:58:33.155Z,3.85
2023-03-13T09:01:04.294Z,8.43
2023-03-13T09:03:31.216Z,7.68
2023-03-13T09:05:58.753Z,9.52
2023-03-13T09:08:25.860Z,5.18
2023-03-13T09:10:57.519Z,6.97
2023-03-13T09:13:25.146Z,5.88
2023-03-13T09:15:56.175Z,5.38
2023-03-13T09:18:23.308Z,6.88
2023-03-13T09:20:50.572Z,5.10
2023-03-13T09:23:17.375Z,6.40
2023-03-13T09:25:44.387Z,5.10
2023-03-13T09:28:11.387Z,9.38
2023-03-13T09:30:38.204Z,5.25
2023-03-13T09:33:05.272Z,8.07
2023-03-13T09:35:37.300Z,6.00
2023-03-13T09:38:04.076Z,5.68
2023-03-13T09:40:33.102Z,4.90
2023-03-13T09:43:00.448Z,2.05
2023-03-13T09:45:36.028Z,3.75
2023-03-13T09:48:05.947Z,6.80
2023-03-13T09:50:38.182Z,4.05
2023-03-13T09:53:11.498Z,2.83
2023-03-13T09:55:38.540Z,4.70
2023-03-13T09:58:11.626Z,3.78
2023-03-13T10:00:39.616Z,8.13
2023-03-13T10:03:09.534Z,7.00
2023-03-13T10:05:37.850Z,4.50
2023-03-13T10:08:10.826Z,6.25
2023-03-13T10:10:37.702Z,4.78
2023-03-13T10:13:12.974Z,5.20
2023-03-13T10:15:39.811Z,5.43
2023-03-13T10:18:21.833Z,3.47
2023-03-13T10:20:53.444Z,4.90
2023-03-13T10:23:39.626Z,7.38
2023-03-13T10:26:09.750Z,4.35
2023-03-13T10:28:36.560Z,3.78
2023-03-13T10:31:08.334Z,2.45
2023-03-13T10:33:37.175Z,7.65
2023-03-13T10:36:03.922Z,6.65
2023-03-13T10:38:33.016Z,6.88
2023-03-13T10:41:01.828Z,5.10
2023-03-13T10:43:29.532Z,7.60
2023-03-13T10:45:56.714Z,3.20
2023-03-13T10:48:25.445Z,4.03
2023-03-13T10:50:54.188Z,8.65
2023-03-13T10:53:26.340Z,5.38
2023-03-13T10:55:54.421Z,7.32
2023-03-13T10:58:28.867Z,2.90
2023-03-13T11:01:08.997Z,4.72
2023-03-13T11:03:36.393Z,5.63
2023-03-13T11:06:03.801Z,4.32
2023-03-13T11:08:35.211Z,3.65
2023-03-13T11:11:03.791Z,9.80
2023-03-13T11:13:37.972Z,3.20
2023-03-13T11:16:08.869Z,4.72
2023-03-13T11:18:40.701Z,4.25
2023-03-13T11:21:18.105Z,5.57
2023-03-13T11:23:54.450Z,5.68
2023-03-13T11:26:21.346Z,9.30
2023-03-13T11:28:48.101Z,4.82
2023-03-13T11:31:35.865Z,5.82
2023-03-13T11:34:08.279Z,3.05
2023-03-13T11:36:36.539Z,2.63
2023-03-13T11:39:12.593Z,5.55
2023-03-13T11:41:42.454Z,4.63
2023-03-13T11:44:22.180Z,3.42
2023-03-13T11:46:52.082Z,3.25
2023-03-13T11:49:18.934Z,4.45
2023-03-13T11:51:59.970Z,4.28
2023-03-13T11:54:45.566Z,2.80
2023-03-13T11:57:14.451Z,3.88
2023-03-13T11:59:50.458Z,8.73
2023-03-13T12:04:45.872Z,4.75
2023-03-13T12:07:15.813Z,3.35
2023-03-13T12:09:44.679Z,4.32
2023-03-13T12:12:21.634Z,8.95
2023-03-13T12:14:56.705Z,5.03
2023-03-13T12:17:32.659Z,5.40
2023-03-13T12:20:08.667Z,6.15
2023-03-13T12:22:39.447Z,3.00
2023-03-13T12:25:10.845Z,5.05
2023-03-13T12:27:42.273Z,6.82
2023-03-13T12:30:29.815Z,5.03
2023-03-13T12:32:56.684Z,13.35
2023-03-13T12:35:30.779Z,8.23
2023-03-13T12:38:16.013Z,5.50
2023-03-13T12:40:49.025Z,4.95
2023-03-13T12:43:15.722Z,6.05
2023-03-13T12:45:57.783Z,6.07
2023-03-13T12:48:33.710Z,6.72
2023-03-13T12:51:23.037Z,6.57
2023-03-13T12:54:08.727Z,7.43
2023-03-13T12:56:44.167Z,4.65
2023-03-13T12:59:23.234Z,6.10
2023-03-13T13:01:51.326Z,6.72
2023-03-13T13:04:26.364Z,4.22
2023-03-13T13:09:24.034Z,2.83
2023-03-13T13:11:52.363Z,5.38
2023-03-13T13:14:19.320Z,11.85
2023-03-13T13:16:50.827Z,8.93
2023-03-13T13:19:23.706Z,11.57
2023-03-13T13:22:09.618Z,12.88
2023-03-13T13:24:50.323Z,8.50
2023-03-13T13:27:32.594Z,14.77
2023-03-13T13:30:00.355Z,9.43
2023-03-13T13:32:39.076Z,17.35
2023-03-13T13:35:12.731Z,12.60
2023-03-13T13:37:40.301Z,4.60
2023-03-13T13:40:10.613Z,12.68
2023-03-13T13:42:43.935Z,20.27
2023-03-13T13:45:16.418Z,11.48
2023-03-13T13:47:47.337Z,10.20
2023-03-13T13:50:17.304Z,7.97
2023-03-13T13:52:44.185Z,16.27
2023-03-13T13:55:34.458Z,12.27
2023-03-13T13:58:05.472Z,9.00
2023-03-13T14:00:55.619Z,12.57
2023-03-13T14:03:23.081Z,20.70
2023-03-13T14:05:51.966Z,11.70
2023-03-13T14:08:29.645Z,8.95
2023-03-13T14:11:21.583Z,15.85
2023-03-13T14:14:21.039Z,13.40
2023-03-13T14:16:47.837Z,12.70
2023-03-13T14:19:26.728Z,13.27
2023-03-13T14:22:19.540Z,14.40
2023-03-13T14:24:56.934Z,17.45
2023-03-13T14:27:23.694Z,10.30
2023-03-13T14:30:05.706Z,13.77
2023-03-13T14:32:32.714Z,13.38
2023-03-13T14:34:59.560Z,12.70
2023-03-13T14:37:53.393Z,14.90
2023-03-13T14:40:21.827Z,15.35
2023-03-13T14:42:50.291Z,17.15
2023-03-13T14:45:31.057Z,13.05
2023-03-13T14:48:05.666Z,18.13
2023-03-13T14:50:32.624Z,14.75
2023-03-13T14:53:05.363Z,13.18
2023-03-13T14:55:33.700Z,10.70
2023-03-13T14:58:02.349Z,13.00
2023-03-13T15:00:31.489Z,19.40
2023-03-13T15:03:17.170Z,13.75
2023-03-13T15:05:44.788Z,12.15
2023-03-13T15:08:15.635Z,11.90
2023-03-13T15:10:43.391Z,14.13
2023-03-13T15:13:17.369Z,16.83
2023-03-13T15:15:44.246Z,16.00
2023-03-13T15:18:21.416Z,14.88
2023-03-13T15:20:51.959Z,15.30
2023-03-13T15:23:19.324Z,23.88
2023-03-13T15:25:46.156Z,20.05
2023-03-13T15:28:16.564Z,12.30
2023-03-13T15:30:44.264Z,11.15
2023-03-13T15:33:18.258Z,13.75
2023-03-13T15:35:45.722Z,13.77
2023-03-13T15:38:14.323Z,10.40
2023-03-13T15:40:41.455Z,17.60
2023-03-13T15:43:08.639Z,21.90
2023-03-13T15:45:37.010Z,12.60
2023-03-13T15:48:10.883Z,18.33
2023-03-13T15:50:37.668Z,13.07
2023-03-13T15:53:10.793Z,19.48
2023-03-13T15:55:37.593Z,17.50
2023-03-13T15:58:04.339Z,17.42
2023-03-13T16:00:31.099Z,13.50
2023-03-13T16:02:57.834Z,15.82
2023-03-13T16:05:24.973Z,20.23
2023-03-13T16:07:51.902Z,15.20
2023-03-13T16:10:25.366Z,20.25
2023-03-13T16:12:52.916Z,22.30
2023-03-13T16:15:19.675Z,22.35
2023-03-13T16:17:46.492Z,17.35
2023-03-13T16:20:17.396Z,17.27
2023-03-13T16:22:44.205Z,16.58
2023-03-13T16:25:11.611Z,18.15
2023-03-13T16:27:40.708Z,18.40
2023-03-13T16:30:14.286Z,17.73
2023-03-13T16:32:41.455Z,22.98
2023-03-13T16:35:08.523Z,16.70
2023-03-13T16:37:35.532Z,21.85
2023-03-13T16:40:02.417Z,20.75
2023-03-13T16:42:29.352Z,16.77
2023-03-13T16:44:56.402Z,24.58
2023-03-13T16:47:27.447Z,18.80
2023-03-13T16:49:54.334Z,21.00
2023-03-13T16:52:21.521Z,20.63
2023-03-13T16:54:48.560Z,27.75
2023-03-13T16:57:17.407Z,17.25
2023-03-13T16:59:45.167Z,19.40
2023-03-13T17:02:16.427Z,24.40
2023-03-13T17:04:44.908Z,19.42
2023-03-13T17:07:17.719Z,17.88
2023-03-13T17:09:44.554Z,18.38
2023-03-13T17:12:11.481Z,20.98
2023-03-13T17:14:38.207Z,17.63
2023-03-13T17:17:05.185Z,16.17
2023-03-13T17:19:32.348Z,18.63
2023-03-13T17:21:59.445Z,20.40
2023-03-13T17:24:26.140Z,15.50
2023-03-13T17:26:53.006Z,21.20
2023-03-13T17:29:19.897Z,19.02
2023-03-13T17:31:46.833Z,20.35
2023-03-13T17:34:13.652Z,21.27
2023-03-13T17:36:41.235Z,22.25
2023-03-13T17:39:11.919Z,19.65
2023-03-13T17:41:38.996Z,16.40
2023-03-13T17:44:07.812Z,21.67
2023-03-13T17:46:36.880Z,26.67
2023-03-13T17:49:04.262Z,28.42
2023-03-13T17:51:32.461Z,18.17
2023-03-13T17:53:59.510Z,20.95
2023-03-13T17:56:29.265Z,25.70
2023-03-13T17:58:57.836Z,25.20
2023-03-13T18:01:26.135Z,24.50
2023-03-13T18:03:53.026Z,22.75
2023-03-13T18:06:21.597Z,28.45
2023-03-13T18:08:49.000Z,18.73
2023-03-13T18:11:17.310Z,24.38
2023-03-13T18:13:45.001Z,23.70
2023-03-13T18:16:15.666Z,25.83
2023-03-13T18:18:42.732Z,36.05
2023-03-13T18:21:09.727Z,26.88
2023-03-13T18:23:36.463Z,25.42
2023-03-13T18:26:13.559Z,26.92
2023-03-13T18:28:40.868Z,27.23
2023-03-13T18:31:09.659Z,30.15
2023-03-13T18:33:36.800Z,36.83
2023-03-13T18:36:03.707Z,26.55
2023-03-13T18:38:30.451Z,29.48
2023-03-13T18:40:57.315Z,34.50
2023-03-13T18:43:24.079Z,36.63
2023-03-13T18:45:50.916Z,31.58
2023-03-13T18:48:17.673Z,43.38
2023-03-13T18:50:44.503Z,28.52
2023-03-13T18:53:11.293Z,29.13
2023-03-13T18:55:38.491Z,30.60
2023-03-13T18:58:05.289Z,27.77
2023-03-13T19:00:33.698Z,42.70
2023-03-13T19:03:01.181Z,44.15
2023-03-13T19:05:28.179Z,34.08
2023-03-13T19:07:55.056Z,32.20
2023-03-13T19:10:24.347Z,38.42
2023-03-13T19:12:52.046Z,27.48
2023-03-13T19:15:19.127Z,34.28
2023-03-13T19:17:46.189Z,23.20
2023-03-13T19:20:17.240Z,28.83
2023-03-13T19:22:46.581Z,28.83
2023-03-13T19:25:14.408Z,35.03
2023-03-13T19:27:43.083Z,24.60
2023-03-13T19:30:35.990Z,23.92
2023-03-13T19:33:02.785Z,34.63
2023-03-13T19:35:29.764Z,35.05
2023-03-13T19:37:56.687Z,27.60
2023-03-13T19:40:25.818Z,26.13
2023-03-13T19:42:52.832Z,26.48
2023-03-13T19:45:21.827Z,31.65
2023-03-13T19:47:49.018Z,25.20
2023-03-13T19:50:20.409Z,26.75
2023-03-13T19:52:47.452Z,22.98
2023-03-13T19:55:14.700Z,27.02
2023-03-13T19:57:41.613Z,29.02
2023-03-13T20:00:14.163Z,25.08
2023-03-13T20:02:41.723Z,23.67
2023-03-13T20:05:10.252Z,21.20
2023-03-13T20:07:37.303Z,23.55
2023-03-13T20:10:05.339Z,18.88
2023-03-13T20:12:32.272Z,20.88
2023-03-13T20:14:58.993Z,20.58
2023-03-13T20:17:25.814Z,24.00
2023-03-13T20:19:52.603Z,25.15
2023-03-13T20:22:19.302Z,21.17
2023-03-13T20:24:46.207Z,25.63
2023-03-13T20:27:13.036Z,22.77
2023-03-13T20:29:41.575Z,27.88
2023-03-13T20:32:08.479Z,17.52
2023-03-13T20:34:35.523Z,16.88
2023-03-13T20:37:03.953Z,20.60
2023-03-13T20:39:30.958Z,25.90
2023-03-13T20:42:02.478Z,26.55
2023-03-13T20:44:29.896Z,23.38
2023-03-13T20:46:56.734Z,25.42
2023-03-13T20:49:23.576Z,30.25
2023-03-13T20:51:50.429Z,22.45
2023-03-13T20:54:17.339Z,26.17
2023-03-13T20:56:44.136Z,22.77
2023-03-13T20:59:11.481Z,22.20
2023-03-13T21:01:38.447Z,23.60
2023-03-13T21:04:05.314Z,32.20
2023-03-13T21:06:32.091Z,25.70
2023-03-13T21:08:58.827Z,29.73
2023-03-13T21:11:25.560Z,27.05
2023-03-13T21:13:52.504Z,22.92
2023-03-13T21:16:20.051Z,24.48
2023-03-13T21:18:47.579Z,25.15
2023-03-13T21:21:17.444Z,20.58
2023-03-13T21:23:44.793Z,24.38
2023-03-13T21:26:12.111Z,16.95
2023-03-13T21:28:39.652Z,26.35
2023-03-13T21:31:10.815Z,28.00
2023-03-13T21:33:38.136Z,24.88
2023-03-13T21:36:05.707Z,19.38
2023-03-13T21:38:32.755Z,26.98
2023-03-13T21:40:59.554Z,20.67
2023-03-13T21:43:28.235Z,22.38
2023-03-13T21:45:56.101Z,25.02
2023-03-13T21:48:23.110Z,30.45
2023-03-13T21:50:51.709Z,24.38
2023-03-13T21:53:19.224Z,25.25
2023-03-13T21:55:48.656Z,16.90
2023-03-13T21:58:15.503Z,26.55
2023-03-13T22:00:42.553Z,25.42
2023-03-13T22:03:09.737Z,26.88
2023-03-13T22:05:43.855Z,25.95
2023-03-13T22:08:10.962Z,19.70
2023-03-13T22:10:38.308Z,22.25
2023-03-13T22:13:06.138Z,22.92
2023-03-13T22:15:33.024Z,21.55
2023-03-13T22:17:59.904Z,26.23
2023-03-13T22:20:26.912Z,21.08
2023-03-13T22:22:53.784Z,28.88
2023-03-13T22:25:20.765Z,25.15
2023-03-13T22:27:47.630Z,26.52
2023-03-13T22:30:14.453Z,24.20
2023-03-13T22:32:41.474Z,22.52
2023-03-13T22:35:08.612Z,17.58
2023-03-13T22:37:36.094Z,24.52
2023-03-13T22:40:03.613Z,26.30
2023-03-13T22:42:30.493Z,14.38
2023-03-13T22:44:57.492Z,17.63
2023-03-13T22:47:26.030Z,21.13
2023-03-13T22:49:53.713Z,13.20
2023-03-13T22:52:21.848Z,16.70
2023-03-13T22:54:48.669Z,15.52
2023-03-13T22:57:15.718Z,10.65
2023-03-13T22:59:42.502Z,14.25
2023-03-13T23:02:09.524Z,14.60
2023-03-13T23:04:36.463Z,16.50
2023-03-13T23:07:03.368Z,9.85
2023-03-13T23:09:30.230Z,13.98
2023-03-13T23:11:57.260Z,10.95
2023-03-13T23:14:28.917Z,10.88
2023-03-13T23:16:56.344Z,13.25
2023-03-13T23:19:23.517Z,10.60
2023-03-13T23:21:50.416Z,8.77
2023-03-13T23:24:17.301Z,15.30
2023-03-13T23:26:44.177Z,9.32
2023-03-13T23:29:11.125Z,12.27
2023-03-13T23:31:37.913Z,17.02
2023-03-13T23:34:04.716Z,17.00
2023-03-13T23:36:31.603Z,25.15
2023-03-13T23:38:59.907Z,13.02
2023-03-13T23:41:26.846Z,14.93
2023-03-13T23:43:53.577Z,13.98
2023-03-13T23:46:26.018Z,11.90
2023-03-13T23:48:53.786Z,13.85
2023-03-13T23:51:20.536Z,14.60
2023-03-13T23:53:47.438Z,18.88
2023-03-13T23:56:14.453Z,9.63
2023-03-13T23:58:41.367Z,10.77
